sensor_id;sensor_type;location;lat;lon;timestamp;P1;durP1;ratioP1;P2;durP2;ratioP2
4353;SDS011;11018;51.258;6.806;2023-11-21T00:02:13;31.93;;;13.70;;
4353;SDS011;11018;51.258;6.806;2023-11-21T00:04:38;36.63;;;14.50;;
4353;SDS011;11018;51.258;6.806;2023-11-21T00:07:04;25.50;;;15.30;;
4353;SDS011;11018;51.258;6.806;2023-11-21T00:09:31;28.15;;;14.00;;
4353;SDS011;11018;51.258;6.806;2023-11-21T00:11:57;22.08;;;11.70;;
4353;SDS011;11018;51.258;6.806;2023-11-21T00:14:24;25.40;;;11.40;;
4353;SDS011;11018;51.258;6.806;2023-11-21T00:16:50;23.10;;;11.87;;
4353;SDS011;11018;51.258;6.806;2023-11-21T00:19:15;17.67;;;10.00;;
4353;SDS011;11018;51.258;6.806;2023-11-21T00:21:41;20.00;;;9.38;;
4353;SDS011;11018;51.258;6.806;2023-11-21T00:24:09;18.23;;;9.27;;
4353;SDS011;11018;51.258;6.806;2023-11-21T00:26:35;22.05;;;10.50;;
4353;SDS011;11018;51.258;6.806;2023-11-21T00:29:02;18.00;;;9.70;;
4353;SDS011;11018;51.258;6.806;2023-11-21T00:31:28;18.42;;;9.77;;
4353;SDS011;11018;51.258;6.806;2023-11-21T00:33:55;17.27;;;9.15;;
4353;SDS011;11018;51.258;6.806;2023-11-21T00:36:21;20.60;;;9.90;;
4353;SDS011;11018;51.258;6.806;2023-11-21T00:38:47;20.10;;;9.37;;
4353;SDS011;11018;51.258;6.806;2023-11-21T00:41:13;15.88;;;9.25;;
4353;SDS011;11018;51.258;6.806;2023-11-21T00:43:39;25.60;;;10.45;;
4353;SDS011;11018;51.258;6.806;2023-11-21T00:46:05;20.52;;;9.15;;
4353;SDS011;11018;51.258;6.806;2023-11-21T00:48:33;21.90;;;9.80;;
4353;SDS011;11018;51.258;6.806;2023-11-21T00:50:59;21.80;;;9.77;;
4353;SDS011;11018;51.258;6.806;2023-11-21T00:53:25;22.40;;;10.20;;
4353;SDS011;11018;51.258;6.806;2023-11-21T00:55:50;22.53;;;11.30;;
4353;SDS011;11018;51.258;6.806;2023-11-21T00:58:23;23.58;;;10.40;;
4353;SDS011;11018;51.258;6.806;2023-11-21T01:00:49;26.80;;;12.18;;
4353;SDS011;11018;51.258;6.806;2023-11-21T01:03:15;26.67;;;11.80;;
4353;SDS011;11018;51.258;6.806;2023-11-21T01:05:40;29.02;;;12.35;;
4353;SDS011;11018;51.258;6.806;2023-11-21T01:08:06;29.55;;;14.25;;
4353;SDS011;11018;51.258;6.806;2023-11-21T01:10:31;24.85;;;12.02;;
4353;SDS011;11018;51.258;6.806;2023-11-21T01:12:59;21.27;;;11.20;;
4353;SDS011;11018;51.258;6.806;2023-11-21T01:15:24;21.57;;;11.60;;
4353;SDS011;11018;51.258;6.806;2023-11-21T01:17:51;24.92;;;12.10;;
4353;SDS011;11018;51.258;6.806;2023-11-21T01:20:17;32.00;;;12.48;;
4353;SDS011;11018;51.258;6.806;2023-11-21T01:22:42;25.37;;;11.90;;
4353;SDS011;11018;51.258;6.806;2023-11-21T01:25:09;25.80;;;12.27;;
4353;SDS011;11018;51.258;6.806;2023-11-21T01:27:35;22.45;;;11.40;;
4353;SDS011;11018;51.258;6.806;2023-11-21T01:30:02;26.25;;;11.98;;
4353;SDS011;11018;51.258;6.806;2023-11-21T01:32:28;28.38;;;12.60;;
4353;SDS011;11018;51.258;6.806;2023-11-21T01:34:54;25.55;;;13.20;;
4353;SDS011;11018;51.258;6.806;2023-11-21T01:37:22;37.15;;;15.05;;
4353;SDS011;11018;51.258;6.806;2023-11-21T01:39:49;23.73;;;12.87;;
4353;SDS011;11018;51.258;6.806;2023-11-21T01:42:14;29.63;;;13.17;;
4353;SDS011;11018;51.258;6.806;2023-11-21T01:44:40;28.73;;;13.30;;
4353;SDS011;11018;51.258;6.806;2023-11-21T01:47:06;34.37;;;16.03;;
4353;SDS011;11018;51.258;6.806;2023-11-21T01:49:33;33.45;;;13.75;;
4353;SDS011;11018;51.258;6.806;2023-11-21T01:51:59;35.77;;;17.00;;
4353;SDS011;11018;51.258;6.806;2023-11-21T01:54:25;32.20;;;15.10;;
4353;SDS011;11018;51.258;6.806;2023-11-21T01:56:51;30.50;;;16.23;;
4353;SDS011;11018;51.258;6.806;2023-11-21T01:59:20;32.78;;;16.40;;
4353;SDS011;11018;51.258;6.806;2023-11-21T02:01:46;23.98;;;13.07;;
4353;SDS011;11018;51.258;6.806;2023-11-21T02:04:12;26.53;;;13.20;;
4353;SDS011;11018;51.258;6.806;2023-11-21T02:06:38;23.35;;;13.05;;
4353;SDS011;11018;51.258;6.806;2023-11-21T02:09:04;30.45;;;13.20;;
4353;SDS011;11018;51.258;6.806;2023-11-21T02:11:30;23.48;;;13.15;;
4353;SDS011;11018;51.258;6.806;2023-11-21T02:13:56;28.55;;;11.93;;
4353;SDS011;11018;51.258;6.806;2023-11-21T02:16:25;24.20;;;12.02;;
4353;SDS011;11018;51.258;6.806;2023-11-21T02:18:52;24.52;;;13.02;;
4353;SDS011;11018;51.258;6.806;2023-11-21T02:21:17;25.50;;;12.40;;
4353;SDS011;11018;51.258;6.806;2023-11-21T02:23:44;33.03;;;12.88;;
4353;SDS011;11018;51.258;6.806;2023-11-21T02:26:11;25.88;;;12.63;;
4353;SDS011;11018;51.258;6.806;2023-11-21T02:28:37;22.80;;;12.70;;
4353;SDS011;11018;51.258;6.806;2023-11-21T02:31:04;25.33;;;12.35;;
4353;SDS011;11018;51.258;6.806;2023-11-21T02:33:30;23.50;;;12.40;;
4353;SDS011;11018;51.258;6.806;2023-11-21T02:35:59;24.02;;;13.27;;
4353;SDS011;11018;51.258;6.806;2023-11-21T02:38:25;26.90;;;14.40;;
4353;SDS011;11018;51.258;6.806;2023-11-21T02:40:51;28.97;;;13.87;;
4353;SDS011;11018;51.258;6.806;2023-11-21T02:43:16;28.77;;;15.13;;
4353;SDS011;11018;51.258;6.806;2023-11-21T02:45:42;26.90;;;13.33;;
4353;SDS011;11018;51.258;6.806;2023-11-21T02:48:08;23.10;;;12.17;;
4353;SDS011;11018;51.258;6.806;2023-11-21T02:50:34;28.47;;;13.20;;
4353;SDS011;11018;51.258;6.806;2023-11-21T02:53:00;27.35;;;12.32;;
4353;SDS011;11018;51.258;6.806;2023-11-21T02:55:26;21.77;;;11.80;;
4353;SDS011;11018;51.258;6.806;2023-11-21T02:57:52;21.25;;;12.00;;
4353;SDS011;11018;51.258;6.806;2023-11-21T03:00:18;20.50;;;12.77;;
4353;SDS011;11018;51.258;6.806;2023-11-21T03:02:44;29.23;;;13.80;;
4353;SDS011;11018;51.258;6.806;2023-11-21T03:05:10;27.45;;;12.90;;
4353;SDS011;11018;51.258;6.806;2023-11-21T03:07:36;27.73;;;14.25;;
4353;SDS011;11018;51.258;6.806;2023-11-21T03:10:03;29.73;;;12.88;;
4353;SDS011;11018;51.258;6.806;2023-11-21T03:12:29;26.38;;;13.70;;
4353;SDS011;11018;51.258;6.806;2023-11-21T03:14:55;24.35;;;13.05;;
4353;SDS011;11018;51.258;6.806;2023-11-21T03:17:21;29.07;;;13.90;;
4353;SDS011;11018;51.258;6.806;2023-11-21T03:19:46;31.98;;;14.07;;
4353;SDS011;11018;51.258;6.806;2023-11-21T03:22:12;29.55;;;14.30;;
4353;SDS011;11018;51.258;6.806;2023-11-21T03:24:38;36.22;;;16.60;;
4353;SDS011;11018;51.258;6.806;2023-11-21T03:27:04;32.47;;;16.87;;
4353;SDS011;11018;51.258;6.806;2023-11-21T03:29:30;37.33;;;16.05;;
4353;SDS011;11018;51.258;6.806;2023-11-21T03:31:55;29.45;;;14.98;;
4353;SDS011;11018;51.258;6.806;2023-11-21T03:34:25;29.97;;;14.20;;
4353;SDS011;11018;51.258;6.806;2023-11-21T03:36:52;28.48;;;14.50;;
4353;SDS011;11018;51.258;6.806;2023-11-21T03:39:19;32.17;;;15.50;;
4353;SDS011;11018;51.258;6.806;2023-11-21T03:41:45;24.20;;;14.20;;
4353;SDS011;11018;51.258;6.806;2023-11-21T03:44:11;30.90;;;14.13;;
4353;SDS011;11018;51.258;6.806;2023-11-21T03:46:36;28.88;;;14.50;;
4353;SDS011;11018;51.258;6.806;2023-11-21T03:49:02;33.88;;;15.32;;
4353;SDS011;11018;51.258;6.806;2023-11-21T03:51:28;30.33;;;13.95;;
4353;SDS011;11018;51.258;6.806;2023-11-21T03:53:53;26.07;;;12.73;;
4353;SDS011;11018;51.258;6.806;2023-11-21T03:56:19;32.10;;;15.17;;
4353;SDS011;11018;51.258;6.806;2023-11-21T03:58:46;28.30;;;15.13;;
4353;SDS011;11018;51.258;6.806;2023-11-21T04:01:22;37.28;;;16.45;;
4353;SDS011;11018;51.258;6.806;2023-11-21T04:03:49;33.73;;;18.60;;
4353;SDS011;11018;51.258;6.806;2023-11-21T04:06:15;35.45;;;16.52;;
4353;SDS011;11018;51.258;6.806;2023-11-21T04:08:42;34.65;;;17.30;;
4353;SDS011;11018;51.258;6.806;2023-11-21T04:11:09;44.30;;;21.48;;
4353;SDS011;11018;51.258;6.806;2023-11-21T04:13:37;39.67;;;19.17;;
4353;SDS011;11018;51.258;6.806;2023-11-21T04:16:03;36.08;;;17.80;;
4353;SDS011;11018;51.258;6.806;2023-11-21T04:18:30;32.38;;;17.20;;
4353;SDS011;11018;51.258;6.806;2023-11-21T04:20:55;35.27;;;17.37;;
4353;SDS011;11018;51.258;6.806;2023-11-21T04:23:21;30.83;;;18.25;;
4353;SDS011;11018;51.258;6.806;2023-11-21T04:25:46;37.92;;;17.90;;
4353;SDS011;11018;51.258;6.806;2023-11-21T04:28:12;30.90;;;16.33;;
4353;SDS011;11018;51.258;6.806;2023-11-21T04:30:38;41.03;;;17.92;;
4353;SDS011;11018;51.258;6.806;2023-11-21T04:33:04;31.25;;;16.58;;
4353;SDS011;11018;51.258;6.806;2023-11-21T04:35:30;32.80;;;16.07;;
4353;SDS011;11018;51.258;6.806;2023-11-21T04:37:55;33.40;;;16.07;;
4353;SDS011;11018;51.258;6.806;2023-11-21T04:40:22;32.05;;;16.88;;
4353;SDS011;11018;51.258;6.806;2023-11-21T04:42:48;32.40;;;15.80;;
4353;SDS011;11018;51.258;6.806;2023-11-21T04:45:13;36.93;;;17.20;;
4353;SDS011;11018;51.258;6.806;2023-11-21T04:47:39;28.63;;;15.93;;
4353;SDS011;11018;51.258;6.806;2023-11-21T04:50:04;39.50;;;17.60;;
4353;SDS011;11018;51.258;6.806;2023-11-21T04:52:31;35.28;;;16.00;;
4353;SDS011;11018;51.258;6.806;2023-11-21T04:54:58;36.17;;;17.27;;
4353;SDS011;11018;51.258;6.806;2023-11-21T04:57:25;37.78;;;18.25;;
4353;SDS011;11018;51.258;6.806;2023-11-21T04:59:53;41.60;;;19.52;;
4353;SDS011;11018;51.258;6.806;2023-11-21T05:02:19;33.17;;;17.67;;
4353;SDS011;11018;51.258;6.806;2023-11-21T05:04:45;34.35;;;17.40;;
4353;SDS011;11018;51.258;6.806;2023-11-21T05:07:11;33.45;;;17.98;;
4353;SDS011;11018;51.258;6.806;2023-11-21T05:09:40;31.02;;;16.42;;
4353;SDS011;11018;51.258;6.806;2023-11-21T05:12:09;32.30;;;16.95;;
4353;SDS011;11018;51.258;6.806;2023-11-21T05:14:34;32.30;;;17.02;;
4353;SDS011;11018;51.258;6.806;2023-11-21T05:17:00;32.72;;;17.00;;
4353;SDS011;11018;51.258;6.806;2023-11-21T05:19:26;33.88;;;17.42;;
4353;SDS011;11018;51.258;6.806;2023-11-21T05:21:52;39.33;;;19.63;;
4353;SDS011;11018;51.258;6.806;2023-11-21T05:24:17;34.73;;;17.80;;
4353;SDS011;11018;51.258;6.806;2023-11-21T05:26:43;31.38;;;16.70;;
4353;SDS011;11018;51.258;6.806;2023-11-21T05:29:08;34.95;;;17.00;;
4353;SDS011;11018;51.258;6.806;2023-11-21T05:31:35;32.65;;;17.15;;
4353;SDS011;11018;51.258;6.806;2023-11-21T05:34:03;32.33;;;16.63;;
4353;SDS011;11018;51.258;6.806;2023-11-21T05:36:30;33.85;;;18.65;;
4353;SDS011;11018;51.258;6.806;2023-11-21T05:38:56;41.00;;;19.55;;
4353;SDS011;11018;51.258;6.806;2023-11-21T05:41:21;42.37;;;19.90;;
4353;SDS011;11018;51.258;6.806;2023-11-21T05:43:47;39.22;;;21.05;;
4353;SDS011;11018;51.258;6.806;2023-11-21T05:46:13;45.78;;;21.27;;
4353;SDS011;11018;51.258;6.806;2023-11-21T05:48:38;46.63;;;22.33;;
4353;SDS011;11018;51.258;6.806;2023-11-21T05:51:07;44.40;;;21.52;;
4353;SDS011;11018;51.258;6.806;2023-11-21T05:53:33;47.55;;;22.35;;
4353;SDS011;11018;51.258;6.806;2023-11-21T05:55:59;41.28;;;22.02;;
4353;SDS011;11018;51.258;6.806;2023-11-21T05:58:25;46.03;;;22.15;;
4353;SDS011;11018;51.258;6.806;2023-11-21T06:00:51;46.57;;;20.90;;
4353;SDS011;11018;51.258;6.806;2023-11-21T06:03:16;43.08;;;21.33;;
4353;SDS011;11018;51.258;6.806;2023-11-21T06:05:42;40.47;;;20.60;;
4353;SDS011;11018;51.258;6.806;2023-11-21T06:08:08;47.03;;;23.15;;
4353;SDS011;11018;51.258;6.806;2023-11-21T06:10:35;51.35;;;24.52;;
4353;SDS011;11018;51.258;6.806;2023-11-21T06:13:01;47.33;;;24.08;;
4353;SDS011;11018;51.258;6.806;2023-11-21T06:15:28;45.30;;;23.30;;
4353;SDS011;11018;51.258;6.806;2023-11-21T06:17:54;51.58;;;24.48;;
4353;SDS011;11018;51.258;6.806;2023-11-21T06:20:20;52.45;;;24.60;;
4353;SDS011;11018;51.258;6.806;2023-11-21T06:22:48;52.50;;;24.27;;
4353;SDS011;11018;51.258;6.806;2023-11-21T06:25:15;54.72;;;24.83;;
4353;SDS011;11018;51.258;6.806;2023-11-21T06:27:44;53.07;;;25.67;;
4353;SDS011;11018;51.258;6.806;2023-11-21T06:30:12;54.33;;;25.48;;
4353;SDS011;11018;51.258;6.806;2023-11-21T06:32:40;54.30;;;25.88;;
4353;SDS011;11018;51.258;6.806;2023-11-21T06:35:06;52.17;;;25.50;;
4353;SDS011;11018;51.258;6.806;2023-11-21T06:37:33;56.30;;;26.45;;
4353;SDS011;11018;51.258;6.806;2023-11-21T06:39:59;58.53;;;26.80;;
4353;SDS011;11018;51.258;6.806;2023-11-21T06:42:25;58.47;;;26.67;;
4353;SDS011;11018;51.258;6.806;2023-11-21T06:44:52;59.50;;;27.60;;
4353;SDS011;11018;51.258;6.806;2023-11-21T06:47:18;57.03;;;27.23;;
4353;SDS011;11018;51.258;6.806;2023-11-21T06:49:45;52.75;;;26.92;;
4353;SDS011;11018;51.258;6.806;2023-11-21T06:52:13;50.10;;;24.90;;
4353;SDS011;11018;51.258;6.806;2023-11-21T06:54:39;50.58;;;25.33;;
4353;SDS011;11018;51.258;6.806;2023-11-21T06:57:04;53.70;;;26.27;;
4353;SDS011;11018;51.258;6.806;2023-11-21T06:59:30;52.88;;;26.23;;
4353;SDS011;11018;51.258;6.806;2023-11-21T07:01:55;58.15;;;27.20;;
4353;SDS011;11018;51.258;6.806;2023-11-21T07:04:21;51.30;;;26.27;;
4353;SDS011;11018;51.258;6.806;2023-11-21T07:06:47;53.95;;;25.75;;
4353;SDS011;11018;51.258;6.806;2023-11-21T07:09:12;56.53;;;27.27;;
4353;SDS011;11018;51.258;6.806;2023-11-21T07:11:38;62.33;;;27.73;;
4353;SDS011;11018;51.258;6.806;2023-11-21T07:14:04;54.10;;;27.70;;
4353;SDS011;11018;51.258;6.806;2023-11-21T07:16:35;56.35;;;25.42;;
4353;SDS011;11018;51.258;6.806;2023-11-21T07:19:04;57.05;;;26.00;;
4353;SDS011;11018;51.258;6.806;2023-11-21T07:21:33;54.97;;;24.92;;
4353;SDS011;11018;51.258;6.806;2023-11-21T07:24:00;54.90;;;25.20;;
4353;SDS011;11018;51.258;6.806;2023-11-21T07:26:26;52.90;;;24.23;;
4353;SDS011;11018;51.258;6.806;2023-11-21T07:28:52;52.05;;;23.98;;
4353;SDS011;11018;51.258;6.806;2023-11-21T07:31:18;56.13;;;24.30;;
4353;SDS011;11018;51.258;6.806;2023-11-21T07:33:44;47.08;;;22.63;;
4353;SDS011;11018;51.258;6.806;2023-11-21T07:36:12;45.95;;;22.60;;
4353;SDS011;11018;51.258;6.806;2023-11-21T07:38:38;48.37;;;22.17;;
4353;SDS011;11018;51.258;6.806;2023-11-21T07:41:04;48.15;;;23.42;;
4353;SDS011;11018;51.258;6.806;2023-11-21T07:43:32;51.67;;;23.67;;
4353;SDS011;11018;51.258;6.806;2023-11-21T07:46:03;47.75;;;23.52;;
4353;SDS011;11018;51.258;6.806;2023-11-21T07:48:32;45.72;;;22.92;;
4353;SDS011;11018;51.258;6.806;2023-11-21T07:50:58;47.60;;;23.30;;
4353;SDS011;11018;51.258;6.806;2023-11-21T07:53:24;49.03;;;23.60;;
4353;SDS011;11018;51.258;6.806;2023-11-21T07:56:03;49.00;;;24.95;;
4353;SDS011;11018;51.258;6.806;2023-11-21T07:58:29;55.70;;;25.73;;
4353;SDS011;11018;51.258;6.806;2023-11-21T08:00:55;54.53;;;25.48;;
4353;SDS011;11018;51.258;6.806;2023-11-21T08:03:23;55.90;;;26.90;;
4353;SDS011;11018;51.258;6.806;2023-11-21T08:05:48;59.25;;;26.40;;
4353;SDS011;11018;51.258;6.806;2023-11-21T08:08:14;72.30;;;29.25;;
4353;SDS011;11018;51.258;6.806;2023-11-21T08:10:40;61.85;;;28.15;;
4353;SDS011;11018;51.258;6.806;2023-11-21T08:13:07;60.28;;;27.58;;
4353;SDS011;11018;51.258;6.806;2023-11-21T08:15:34;65.43;;;28.57;;
4353;SDS011;11018;51.258;6.806;2023-11-21T08:18:01;69.60;;;30.15;;
4353;SDS011;11018;51.258;6.806;2023-11-21T08:20:27;67.28;;;28.00;;
4353;SDS011;11018;51.258;6.806;2023-11-21T08:22:53;67.97;;;31.67;;
4353;SDS011;11018;51.258;6.806;2023-11-21T08:25:21;71.80;;;32.53;;
4353;SDS011;11018;51.258;6.806;2023-11-21T08:27:47;77.57;;;31.87;;
4353;SDS011;11018;51.258;6.806;2023-11-21T08:30:12;73.40;;;31.20;;
4353;SDS011;11018;51.258;6.806;2023-11-21T08:32:39;65.25;;;29.10;;
4353;SDS011;11018;51.258;6.806;2023-11-21T08:35:06;63.88;;;28.75;;
4353;SDS011;11018;51.258;6.806;2023-11-21T08:37:32;61.72;;;29.08;;
4353;SDS011;11018;51.258;6.806;2023-11-21T08:40:02;64.75;;;29.73;;
4353;SDS011;11018;51.258;6.806;2023-11-21T08:42:34;62.03;;;28.92;;
4353;SDS011;11018;51.258;6.806;2023-11-21T08:45:00;69.27;;;29.67;;
4353;SDS011;11018;51.258;6.806;2023-11-21T08:47:25;78.07;;;31.67;;
4353;SDS011;11018;51.258;6.806;2023-11-21T08:49:51;76.67;;;32.73;;
4353;SDS011;11018;51.258;6.806;2023-11-21T08:52:19;80.05;;;32.10;;
4353;SDS011;11018;51.258;6.806;2023-11-21T08:54:49;79.03;;;31.70;;
4353;SDS011;11018;51.258;6.806;2023-11-21T08:57:21;64.53;;;29.33;;
4353;SDS011;11018;51.258;6.806;2023-11-21T08:59:47;75.65;;;32.17;;
4353;SDS011;11018;51.258;6.806;2023-11-21T09:02:12;74.53;;;30.42;;
4353;SDS011;11018;51.258;6.806;2023-11-21T09:04:38;75.32;;;31.77;;
4353;SDS011;11018;51.258;6.806;2023-11-21T09:07:03;74.72;;;32.38;;
4353;SDS011;11018;51.258;6.806;2023-11-21T09:09:29;75.60;;;31.10;;
4353;SDS011;11018;51.258;6.806;2023-11-21T09:11:55;71.30;;;30.27;;
4353;SDS011;11018;51.258;6.806;2023-11-21T09:14:20;73.40;;;32.23;;
4353;SDS011;11018;51.258;6.806;2023-11-21T09:16:46;80.23;;;33.07;;
4353;SDS011;11018;51.258;6.806;2023-11-21T09:19:12;71.53;;;32.30;;
4353;SDS011;11018;51.258;6.806;2023-11-21T09:21:39;70.10;;;29.48;;
4353;SDS011;11018;51.258;6.806;2023-11-21T09:24:04;76.67;;;31.37;;
4353;SDS011;11018;51.258;6.806;2023-11-21T09:26:30;74.05;;;31.65;;
4353;SDS011;11018;51.258;6.806;2023-11-21T09:28:56;71.47;;;31.60;;
4353;SDS011;11018;51.258;6.806;2023-11-21T09:31:22;72.40;;;30.70;;
4353;SDS011;11018;51.258;6.806;2023-11-21T09:33:48;72.40;;;31.38;;
4353;SDS011;11018;51.258;6.806;2023-11-21T09:36:14;64.80;;;30.27;;
4353;SDS011;11018;51.258;6.806;2023-11-21T09:38:40;67.53;;;30.20;;
4353;SDS011;11018;51.258;6.806;2023-11-21T09:41:07;74.15;;;31.65;;
4353;SDS011;11018;51.258;6.806;2023-11-21T09:43:43;75.05;;;30.85;;
4353;SDS011;11018;51.258;6.806;2023-11-21T09:46:11;80.68;;;33.53;;
4353;SDS011;11018;51.258;6.806;2023-11-21T09:48:44;81.03;;;32.80;;
4353;SDS011;11018;51.258;6.806;2023-11-21T09:51:13;81.28;;;33.42;;
4353;SDS011;11018;51.258;6.806;2023-11-21T09:53:41;69.47;;;32.60;;
4353;SDS011;11018;51.258;6.806;2023-11-21T09:56:10;79.85;;;35.00;;
4353;SDS011;11018;51.258;6.806;2023-11-21T09:58:35;76.80;;;33.83;;
4353;SDS011;11018;51.258;6.806;2023-11-21T10:01:01;80.35;;;34.45;;
4353;SDS011;11018;51.258;6.806;2023-11-21T10:03:28;74.88;;;34.72;;
4353;SDS011;11018;51.258;6.806;2023-11-21T10:05:55;77.88;;;33.92;;
4353;SDS011;11018;51.258;6.806;2023-11-21T10:08:25;72.88;;;33.97;;
4353;SDS011;11018;51.258;6.806;2023-11-21T10:10:53;86.88;;;36.15;;
4353;SDS011;11018;51.258;6.806;2023-11-21T10:13:20;86.00;;;36.28;;
4353;SDS011;11018;51.258;6.806;2023-11-21T10:15:49;76.73;;;35.03;;
4353;SDS011;11018;51.258;6.806;2023-11-21T10:18:16;73.40;;;33.33;;
4353;SDS011;11018;51.258;6.806;2023-11-21T10:20:42;84.00;;;34.75;;
4353;SDS011;11018;51.258;6.806;2023-11-21T10:23:09;77.40;;;35.60;;
4353;SDS011;11018;51.258;6.806;2023-11-21T10:25:36;81.32;;;34.25;;
4353;SDS011;11018;51.258;6.806;2023-11-21T10:28:02;82.82;;;34.40;;
4353;SDS011;11018;51.258;6.806;2023-11-21T10:30:35;79.88;;;35.53;;
4353;SDS011;11018;51.258;6.806;2023-11-21T10:33:05;87.60;;;37.85;;
4353;SDS011;11018;51.258;6.806;2023-11-21T10:35:47;79.75;;;35.05;;
4353;SDS011;11018;51.258;6.806;2023-11-21T10:38:19;94.93;;;39.10;;
4353;SDS011;11018;51.258;6.806;2023-11-21T10:40:49;85.00;;;36.58;;
4353;SDS011;11018;51.258;6.806;2023-11-21T10:43:16;96.90;;;39.78;;
4353;SDS011;11018;51.258;6.806;2023-11-21T10:45:42;102.88;;;40.40;;
4353;SDS011;11018;51.258;6.806;2023-11-21T10:48:14;91.20;;;37.67;;
4353;SDS011;11018;51.258;6.806;2023-11-21T10:50:40;100.53;;;41.72;;
4353;SDS011;11018;51.258;6.806;2023-11-21T10:53:07;102.78;;;40.25;;
4353;SDS011;11018;51.258;6.806;2023-11-21T10:55:33;98.43;;;41.30;;
4353;SDS011;11018;51.258;6.806;2023-11-21T10:58:01;118.25;;;42.55;;
4353;SDS011;11018;51.258;6.806;2023-11-21T11:00:29;108.93;;;43.72;;
4353;SDS011;11018;51.258;6.806;2023-11-21T11:02:55;119.28;;;44.33;;
4353;SDS011;11018;51.258;6.806;2023-11-21T11:05:25;118.53;;;43.85;;
4353;SDS011;11018;51.258;6.806;2023-11-21T11:07:56;114.65;;;45.53;;
4353;SDS011;11018;51.258;6.806;2023-11-21T11:10:27;124.03;;;47.13;;
4353;SDS011;11018;51.258;6.806;2023-11-21T11:12:54;117.88;;;46.08;;
4353;SDS011;11018;51.258;6.806;2023-11-21T11:15:21;124.27;;;48.03;;
4353;SDS011;11018;51.258;6.806;2023-11-21T11:17:46;135.50;;;48.70;;
4353;SDS011;11018;51.258;6.806;2023-11-21T11:20:14;122.85;;;46.13;;
4353;SDS011;11018;51.258;6.806;2023-11-21T11:22:44;125.28;;;44.83;;
4353;SDS011;11018;51.258;6.806;2023-11-21T11:25:59;123.55;;;45.78;;
4353;SDS011;11018;51.258;6.806;2023-11-21T11:36:48;106.97;;;37.90;;
4353;SDS011;11018;51.258;6.806;2023-11-21T11:39:54;108.75;;;40.60;;
4353;SDS011;11018;51.258;6.806;2023-11-21T11:42:14;98.38;;;38.60;;
4353;SDS011;11018;51.258;6.806;2023-11-21T11:55:05;97.20;;;35.65;;
4353;SDS011;11018;51.258;6.806;2023-11-21T11:57:35;86.05;;;34.40;;
4353;SDS011;11018;51.258;6.806;2023-11-21T12:00:11;83.13;;;33.88;;
4353;SDS011;11018;51.258;6.806;2023-11-21T12:02:59;78.40;;;31.80;;
4353;SDS011;11018;51.258;6.806;2023-11-21T12:05:28;78.87;;;32.50;;
4353;SDS011;11018;51.258;6.806;2023-11-21T12:07:58;76.80;;;29.30;;
4353;SDS011;11018;51.258;6.806;2023-11-21T12:10:29;63.47;;;27.65;;
4353;SDS011;11018;51.258;6.806;2023-11-21T12:12:57;74.28;;;27.80;;
4353;SDS011;11018;51.258;6.806;2023-11-21T12:15:24;73.85;;;27.80;;
4353;SDS011;11018;51.258;6.806;2023-11-21T12:17:50;77.35;;;29.70;;
4353;SDS011;11018;51.258;6.806;2023-11-21T12:20:20;64.93;;;27.50;;
4353;SDS011;11018;51.258;6.806;2023-11-21T12:22:48;69.55;;;27.75;;
4353;SDS011;11018;51.258;6.806;2023-11-21T12:25:21;72.65;;;30.80;;
4353;SDS011;11018;51.258;6.806;2023-11-21T12:27:49;69.47;;;30.38;;
4353;SDS011;11018;51.258;6.806;2023-11-21T12:30:16;65.05;;;28.23;;
4353;SDS011;11018;51.258;6.806;2023-11-21T12:32:51;64.80;;;27.10;;
4353;SDS011;11018;51.258;6.806;2023-11-21T12:35:18;63.00;;;28.20;;
4353;SDS011;11018;51.258;6.806;2023-11-21T12:37:45;64.38;;;27.92;;
4353;SDS011;11018;51.258;6.806;2023-11-21T12:40:11;61.65;;;29.33;;
4353;SDS011;11018;51.258;6.806;2023-11-21T12:42:40;67.30;;;29.75;;
4353;SDS011;11018;51.258;6.806;2023-11-21T12:47:50;67.07;;;28.50;;
4353;SDS011;11018;51.258;6.806;2023-11-21T12:50:20;84.00;;;31.70;;
4353;SDS011;11018;51.258;6.806;2023-11-21T12:52:53;69.97;;;29.80;;
4353;SDS011;11018;51.258;6.806;2023-11-21T12:55:22;78.18;;;32.25;;
4353;SDS011;11018;51.258;6.806;2023-11-21T12:57:52;77.93;;;34.05;;
4353;SDS011;11018;51.258;6.806;2023-11-21T13:00:32;76.78;;;33.35;;
4353;SDS011;11018;51.258;6.806;2023-11-21T13:03:02;79.28;;;33.88;;
4353;SDS011;11018;51.258;6.806;2023-11-21T13:05:30;79.97;;;34.35;;
4353;SDS011;11018;51.258;6.806;2023-11-21T13:07:59;93.22;;;35.85;;
4353;SDS011;11018;51.258;6.806;2023-11-21T13:10:28;94.10;;;36.17;;
4353;SDS011;11018;51.258;6.806;2023-11-21T13:12:58;94.17;;;37.50;;
4353;SDS011;11018;51.258;6.806;2023-11-21T13:15:26;79.40;;;36.03;;
4353;SDS011;11018;51.258;6.806;2023-11-21T13:17:52;96.63;;;37.80;;
4353;SDS011;11018;51.258;6.806;2023-11-21T13:20:19;85.85;;;34.92;;
4353;SDS011;11018;51.258;6.806;2023-11-21T13:22:49;83.82;;;35.88;;
4353;SDS011;11018;51.258;6.806;2023-11-21T13:25:16;107.15;;;40.15;;
4353;SDS011;11018;51.258;6.806;2023-11-21T13:27:45;97.72;;;39.00;;
4353;SDS011;11018;51.258;6.806;2023-11-21T13:30:11;93.70;;;38.97;;
4353;SDS011;11018;51.258;6.806;2023-11-21T13:32:44;113.57;;;47.10;;
4353;SDS011;11018;51.258;6.806;2023-11-21T13:35:16;101.38;;;42.72;;
4353;SDS011;11018;51.258;6.806;2023-11-21T13:38:03;103.20;;;41.00;;
4353;SDS011;11018;51.258;6.806;2023-11-21T13:40:31;118.60;;;43.55;;
4353;SDS011;11018;51.258;6.806;2023-11-21T13:42:59;103.13;;;41.75;;
4353;SDS011;11018;51.258;6.806;2023-11-21T13:45:29;99.83;;;41.17;;
4353;SDS011;11018;51.258;6.806;2023-11-21T13:47:56;85.85;;;37.15;;
4353;SDS011;11018;51.258;6.806;2023-11-21T13:50:26;88.20;;;37.20;;
4353;SDS011;11018;51.258;6.806;2023-11-21T13:52:58;99.22;;;38.40;;
4353;SDS011;11018;51.258;6.806;2023-11-21T13:55:28;93.00;;;40.10;;
4353;SDS011;11018;51.258;6.806;2023-11-21T13:57:53;104.28;;;39.78;;
4353;SDS011;11018;51.258;6.806;2023-11-21T14:00:19;103.25;;;41.55;;
4353;SDS011;11018;51.258;6.806;2023-11-21T14:03:03;103.72;;;42.85;;
4353;SDS011;11018;51.258;6.806;2023-11-21T14:05:33;84.20;;;33.58;;
4353;SDS011;11018;51.258;6.806;2023-11-21T14:07:59;77.18;;;30.20;;
4353;SDS011;11018;51.258;6.806;2023-11-21T14:10:32;49.17;;;22.55;;
4353;SDS011;11018;51.258;6.806;2023-11-21T14:13:05;53.83;;;24.27;;
4353;SDS011;11018;51.258;6.806;2023-11-21T14:15:31;41.30;;;19.50;;
4353;SDS011;11018;51.258;6.806;2023-11-21T14:17:58;44.67;;;21.30;;
4353;SDS011;11018;51.258;6.806;2023-11-21T14:20:27;49.75;;;21.50;;
4353;SDS011;11018;51.258;6.806;2023-11-21T14:22:54;44.20;;;21.80;;
4353;SDS011;11018;51.258;6.806;2023-11-21T14:25:19;39.13;;;19.03;;
4353;SDS011;11018;51.258;6.806;2023-11-21T14:27:47;38.45;;;19.40;;
4353;SDS011;11018;51.258;6.806;2023-11-21T14:30:13;38.58;;;19.83;;
4353;SDS011;11018;51.258;6.806;2023-11-21T14:32:40;31.33;;;15.43;;
4353;SDS011;11018;51.258;6.806;2023-11-21T14:35:05;32.97;;;14.93;;
4353;SDS011;11018;51.258;6.806;2023-11-21T14:37:34;33.10;;;16.17;;
4353;SDS011;11018;51.258;6.806;2023-11-21T14:40:00;31.50;;;16.02;;
4353;SDS011;11018;51.258;6.806;2023-11-21T14:42:25;26.47;;;15.50;;
4353;SDS011;11018;51.258;6.806;2023-11-21T14:44:54;26.92;;;14.82;;
4353;SDS011;11018;51.258;6.806;2023-11-21T14:47:25;27.13;;;15.18;;
4353;SDS011;11018;51.258;6.806;2023-11-21T14:49:52;26.25;;;14.98;;
4353;SDS011;11018;51.258;6.806;2023-11-21T14:52:21;30.20;;;15.00;;
4353;SDS011;11018;51.258;6.806;2023-11-21T14:55:02;27.20;;;15.82;;
4353;SDS011;11018;51.258;6.806;2023-11-21T14:57:56;26.38;;;15.25;;